sensor_id;sensor_type;location;lat;lon;timestamp;temperature;humidity
20315;DHT22;10315;50.958;13.080;2022-08-11T00:06:52;16.90;95.90
20315;DHT22;10315;50.958;13.080;2022-08-11T00:16:58;16.80;97.40
20315;DHT22;10315;50.958;13.080;2022-08-11T00:27:00;16.60;99.40
20315;DHT22;10315;50.958;13.080;2022-08-11T00:37:07;16.40;99.90
20315;DHT22;10315;50.958;13.080;2022-08-11T00:47:17;16.10;99.90
20315;DHT22;10315;50.958;13.080;2022-08-11T00:57:40;15.80;99.90
20315;DHT22;10315;50.958;13.080;2022-08-11T01:08:22;15.20;99.90
20315;DHT22;10315;50.958;13.080;2022-08-11T01:19:03;15.00;99.90
20315;DHT22;10315;50.958;13.080;2022-08-11T01:29:39;15.20;99.90
20315;DHT22;10315;50.958;13.080;2022-08-11T01:50:49;15.20;99.90
20315;DHT22;10315;50.958;13.080;2022-08-11T02:01:01;15.20;99.90
20315;DHT22;10315;50.958;13.080;2022-08-11T02:11:17;15.40;99.90
20315;DHT22;10315;50.958;13.080;2022-08-11T02:21:43;15.20;99.90
20315;DHT22;10315;50.958;13.080;2022-08-11T02:32:06;15.30;99.90
20315;DHT22;10315;50.958;13.080;2022-08-11T02:42:34;15.40;99.90
20315;DHT22;10315;50.958;13.080;2022-08-11T02:52:45;15.10;99.90
20315;DHT22;10315;50.958;13.080;2022-08-11T03:03:00;15.10;99.90
20315;DHT22;10315;50.958;13.080;2022-08-11T03:13:15;15.20;99.90
20315;DHT22;10315;50.958;13.080;2022-08-11T03:23:44;15.00;99.90
20315;DHT22;10315;50.958;13.080;2022-08-11T03:33:52;14.70;99.90
20315;DHT22;10315;50.958;13.080;2022-08-11T03:44:09;14.40;99.90
20315;DHT22;10315;50.958;13.080;2022-08-11T03:54:27;13.90;99.90
20315;DHT22;10315;50.958;13.080;2022-08-11T04:15:22;13.70;99.90
20315;DHT22;10315;50.958;13.080;2022-08-11T04:26:05;14.00;99.90
20315;DHT22;10315;50.958;13.080;2022-08-11T04:36:40;14.60;99.90
20315;DHT22;10315;50.958;13.080;2022-08-11T04:47:12;14.90;99.90
20315;DHT22;10315;50.958;13.080;2022-08-11T04:57:49;14.60;99.90
20315;DHT22;10315;50.958;13.080;2022-08-11T05:18:48;15.50;99.90
20315;DHT22;10315;50.958;13.080;2022-08-11T05:29:39;15.80;99.90
20315;DHT22;10315;50.958;13.080;2022-08-11T05:40:05;16.20;99.90
20315;DHT22;10315;50.958;13.080;2022-08-11T05:50:26;16.60;99.90
20315;DHT22;10315;50.958;13.080;2022-08-11T06:00:47;17.00;99.90
20315;DHT22;10315;50.958;13.080;2022-08-11T06:10:49;17.40;99.90
20315;DHT22;10315;50.958;13.080;2022-08-11T06:20:54;18.00;99.90
20315;DHT22;10315;50.958;13.080;2022-08-11T06:30:57;19.20;99.90
20315;DHT22;10315;50.958;13.080;2022-08-11T06:41:06;20.40;99.90
20315;DHT22;10315;50.958;13.080;2022-08-11T06:51:26;22.90;99.90
20315;DHT22;10315;50.958;13.080;2022-08-11T07:01:36;30.70;82.00
20315;DHT22;10315;50.958;13.080;2022-08-11T07:11:58;35.00;59.60
20315;DHT22;10315;50.958;13.080;2022-08-11T07:22:20;38.40;52.60
20315;DHT22;10315;50.958;13.080;2022-08-11T07:32:49;42.20;44.60
20315;DHT22;10315;50.958;13.080;2022-08-11T07:43:29;44.70;37.90
20315;DHT22;10315;50.958;13.080;2022-08-11T07:53:32;43.10;37.70
20315;DHT22;10315;50.958;13.080;2022-08-11T08:03:38;44.60;35.70
20315;DHT22;10315;50.958;13.080;2022-08-11T08:13:57;46.00;33.90
20315;DHT22;10315;50.958;13.080;2022-08-11T08:24:19;42.50;36.10
20315;DHT22;10315;50.958;13.080;2022-08-11T08:34:21;42.30;36.30
20315;DHT22;10315;50.958;13.080;2022-08-11T08:44:25;42.00;37.50
20315;DHT22;10315;50.958;13.080;2022-08-11T08:54:31;40.10;38.20
20315;DHT22;10315;50.958;13.080;2022-08-11T09:04:36;38.10;39.90
20315;DHT22;10315;50.958;13.080;2022-08-11T09:14:39;39.50;39.20
20315;DHT22;10315;50.958;13.080;2022-08-11T09:25:01;37.60;40.80
20315;DHT22;10315;50.958;13.080;2022-08-11T09:35:21;36.90;40.80
20315;DHT22;10315;50.958;13.080;2022-08-11T09:45:26;35.60;42.40
20315;DHT22;10315;50.958;13.080;2022-08-11T09:55:28;41.20;38.00
20315;DHT22;10315;50.958;13.080;2022-08-11T10:05:32;40.20;38.40
20315;DHT22;10315;50.958;13.080;2022-08-11T10:15:53;36.70;41.40
20315;DHT22;10315;50.958;13.080;2022-08-11T10:25:58;33.70;45.40
20315;DHT22;10315;50.958;13.080;2022-08-11T10:36:18;32.70;46.40
20315;DHT22;10315;50.958;13.080;2022-08-11T10:46:22;32.10;47.30
20315;DHT22;10315;50.958;13.080;2022-08-11T10:56:42;31.90;47.40
20315;DHT22;10315;50.958;13.080;2022-08-11T11:07:07;29.50;51.30
20315;DHT22;10315;50.958;13.080;2022-08-11T11:17:14;29.40;50.90
20315;DHT22;10315;50.958;13.080;2022-08-11T11:27:47;29.20;52.30
20315;DHT22;10315;50.958;13.080;2022-08-11T11:37:54;29.60;51.30
20315;DHT22;10315;50.958;13.080;2022-08-11T11:48:00;31.00;48.70
20315;DHT22;10315;50.958;13.080;2022-08-11T11:58:03;30.70;49.20
20315;DHT22;10315;50.958;13.080;2022-08-11T12:08:24;29.90;49.70
20315;DHT22;10315;50.958;13.080;2022-08-11T12:18:27;30.00;49.90
20315;DHT22;10315;50.958;13.080;2022-08-11T12:28:32;31.10;48.60
20315;DHT22;10315;50.958;13.080;2022-08-11T12:38:35;31.50;48.00
20315;DHT22;10315;50.958;13.080;2022-08-11T12:48:44;30.40;49.10
20315;DHT22;10315;50.958;13.080;2022-08-11T12:59:04;29.20;50.90
20315;DHT22;10315;50.958;13.080;2022-08-11T13:09:26;29.80;49.40
20315;DHT22;10315;50.958;13.080;2022-08-11T13:19:28;30.00;47.70
20315;DHT22;10315;50.958;13.080;2022-08-11T13:29:32;29.70;47.70
20315;DHT22;10315;50.958;13.080;2022-08-11T13:39:36;29.00;47.40
20315;DHT22;10315;50.958;13.080;2022-08-11T13:49:40;29.80;46.10
20315;DHT22;10315;50.958;13.080;2022-08-11T13:59:53;29.90;45.80
20315;DHT22;10315;50.958;13.080;2022-08-11T14:09:57;28.90;47.30
20315;DHT22;10315;50.958;13.080;2022-08-11T14:20:05;28.70;45.60
20315;DHT22;10315;50.958;13.080;2022-08-11T14:30:08;28.40;45.40
20315;DHT22;10315;50.958;13.080;2022-08-11T14:40:32;28.30;46.10
20315;DHT22;10315;50.958;13.080;2022-08-11T14:50:52;28.10;46.30
20315;DHT22;10315;50.958;13.080;2022-08-11T15:00:56;28.30;46.00
20315;DHT22;10315;50.958;13.080;2022-08-11T15:10:58;27.80;46.60
20315;DHT22;10315;50.958;13.080;2022-08-11T15:21:01;27.40;47.40
20315;DHT22;10315;50.958;13.080;2022-08-11T15:31:22;27.60;46.20
20315;DHT22;10315;50.958;13.080;2022-08-11T15:41:49;27.90;45.70
20315;DHT22;10315;50.958;13.080;2022-08-11T15:52:11;27.70;45.90
20315;DHT22;10315;50.958;13.080;2022-08-11T16:02:19;27.60;45.50
20315;DHT22;10315;50.958;13.080;2022-08-11T16:12:41;27.80;45.90
20315;DHT22;10315;50.958;13.080;2022-08-11T16:23:06;28.00;45.30
20315;DHT22;10315;50.958;13.080;2022-08-11T16:33:10;27.40;48.10
20315;DHT22;10315;50.958;13.080;2022-08-11T16:43:16;27.40;48.60
20315;DHT22;10315;50.958;13.080;2022-08-11T16:53:37;27.30;49.20
20315;DHT22;10315;50.958;13.080;2022-08-11T17:03:44;27.20;49.70
20315;DHT22;10315;50.958;13.080;2022-08-11T17:14:08;26.60;51.20
20315;DHT22;10315;50.958;13.080;2022-08-11T17:24:14;26.10;52.40
20315;DHT22;10315;50.958;13.080;2022-08-11T17:34:16;25.80;52.00
20315;DHT22;10315;50.958;13.080;2022-08-11T17:44:38;25.50;53.00
20315;DHT22;10315;50.958;13.080;2022-08-11T17:54:58;24.90;53.80
20315;DHT22;10315;50.958;13.080;2022-08-11T18:05:21;24.50;54.70
20315;DHT22;10315;50.958;13.080;2022-08-11T18:15:24;24.00;55.60
20315;DHT22;10315;50.958;13.080;2022-08-11T18:25:46;23.60;56.50
20315;DHT22;10315;50.958;13.080;2022-08-11T18:36:08;23.10;57.70
20315;DHT22;10315;50.958;13.080;2022-08-11T18:46:33;22.60;58.80
20315;DHT22;10315;50.958;13.080;2022-08-11T18:56:56;22.20;59.50
20315;DHT22;10315;50.958;13.080;2022-08-11T19:07:19;21.80;60.70
20315;DHT22;10315;50.958;13.080;2022-08-11T19:17:41;21.40;61.70
20315;DHT22;10315;50.958;13.080;2022-08-11T19:28:05;21.00;62.90
20315;DHT22;10315;50.958;13.080;2022-08-11T19:38:25;20.70;64.30
20315;DHT22;10315;50.958;13.080;2022-08-11T19:48:49;20.40;65.00
20315;DHT22;10315;50.958;13.080;2022-08-11T19:59:11;20.00;66.40
20315;DHT22;10315;50.958;13.080;2022-08-11T20:09:32;19.80;66.90
20315;DHT22;10315;50.958;13.080;2022-08-11T20:19:52;19.70;67.40
20315;DHT22;10315;50.958;13.080;2022-08-11T20:30:13;19.40;68.30
20315;DHT22;10315;50.958;13.080;2022-08-11T20:40:33;19.20;68.90
20315;DHT22;10315;50.958;13.080;2022-08-11T20:50:54;18.90;70.10
20315;DHT22;10315;50.958;13.080;2022-08-11T21:01:15;18.70;70.70
20315;DHT22;10315;50.958;13.080;2022-08-11T21:11:37;18.60;71.30
20315;DHT22;10315;50.958;13.080;2022-08-11T21:21:59;18.50;72.30
20315;DHT22;10315;50.958;13.080;2022-08-11T21:32:23;18.30;72.80
20315;DHT22;10315;50.958;13.080;2022-08-11T21:42:44;18.00;73.70
20315;DHT22;10315;50.958;13.080;2022-08-11T21:53:06;17.70;75.20
20315;DHT22;10315;50.958;13.080;2022-08-11T22:03:26;17.80;75.70
20315;DHT22;10315;50.958;13.080;2022-08-11T22:13:47;17.60;76.50
20315;DHT22;10315;50.958;13.080;2022-08-11T22:24:07;17.30;78.10
20315;DHT22;10315;50.958;13.080;2022-08-11T22:34:27;17.00;79.40
20315;DHT22;10315;50.958;13.080;2022-08-11T22:44:47;17.20;80.50
20315;DHT22;10315;50.958;13.080;2022-08-11T22:55:08;17.40;80.70
20315;DHT22;10315;50.958;13.080;2022-08-11T23:05:28;17.20;81.80
20315;DHT22;10315;50.958;13.080;2022-08-11T23:15:49;17.00;82.60
20315;DHT22;10315;50.958;13.080;2022-08-11T23:26:09;16.80;85.40
20315;DHT22;10315;50.958;13.080;2022-08-11T23:36:30;16.80;86.40
20315;DHT22;10315;50.958;13.080;2022-08-11T23:46:53;16.30;86.90
20315;DHT22;10315;50.958;13.080;2022-08-11T23:57:14;15.60;87.80
